FW3841 Weather Reports


Display with metric or nautical units.
time (UTC)temp
F
wind
direction
speed
MPH
gust
MPH
rain 1hr
in
rain 24hr
in
rain mn
in
humidity
%
barometer
mb
20260503221040 87 98 2.0 10.0 0.00 0.00 0.00 31 1011.4
20260503220540 87 120 1.0 4.0 0.00 0.00 0.00 31 1011.5
20260503220055 87 229 1.0 4.0 0.00 0.00 0.00 28 1011.4
20260503215540 87 126 2.0 4.0 0.00 0.00 0.00 32 1011.7
20260503215041 88 82 1.0 3.0 0.00 0.00 0.00 37 1011.8
20260503214548 88 0 1.0 5.0 0.00 0.00 0.00 35 1011.8
20260503214040 88 0 1.0 7.0 0.00 0.00 0.00 30 1011.8
20260503213544 88 108 2.0 7.0 0.00 0.00 0.00 32 1011.9
20260503213048 87 64 1.0 4.0 0.00 0.00 0.00 28 1011.9
20260503212540 87 123 2.0 5.0 0.00 0.00 0.00 27 1011.9
20260503212040 87 119 2.0 5.0 0.00 0.00 0.00 28 1012.1
20260503211553 88 98 2.0 4.0 0.00 0.00 0.00 29 1012.1
20260503211040 87 0 1.0 5.0 0.00 0.00 0.00 29 1012.1
20260503210541 87 242 1.0 5.0 0.00 0.00 0.00 30 1012.1
20260503210051 87 267 2.0 6.0 0.00 0.00 0.00 29 1012.2
20260503205540 87 130 1.0 6.0 0.00 0.00 0.00 34 1012.3
20260503205040 87 123 2.0 5.0 0.00 0.00 0.00 28 1012.3
20260503204554 87 346 1.0 7.0 0.00 0.00 0.00 32 1012.4
20260503204040 86 109 2.0 7.0 0.00 0.00 0.00 26 1012.4
20260503203543 86 42 2.0 9.0 0.00 0.00 0.00 30 1012.4
20260503203056 86 77 3.0 9.0 0.00 0.00 0.00 31 1012.6
20260503202539 86 0 1.0 5.0 0.00 0.00 0.00 34 1012.6
20260503202039 86 163 2.0 6.0 0.00 0.00 0.00 37 1012.7
20260503201554 86 134 1.0 7.0 0.00 0.00 0.00 34 1012.7
20260503201044 86 0 2.0 7.0 0.00 0.00 0.00 34 1012.7
20260503200540 86 328 0.0 4.0 0.00 0.00 0.00 43 1012.8
20260503200101 85 0 1.0 4.0 0.00 0.00 0.00 36 1012.9
20260503195540 85 111 2.0 4.0 0.00 0.00 0.00 36 1013.0
20260503195040 85 70 1.0 6.0 0.00 0.00 0.00 33 1013.0
20260503194558 85 118 2.0 6.0 0.00 0.00 0.00 37 1013.1
20260503194040 85 92 0.0 8.0 0.00 0.00 0.00 33 1013.1
20260503193540 85 29 2.0 8.0 0.00 0.00 0.00 35 1013.2
20260503193107 85 11 1.0 3.0 0.00 0.00 0.00 41 1013.3
20260503192541 85 290 0.0 2.0 0.00 0.00 0.00 39 1013.3
20260503192042 84 325 0.0 5.0 0.00 0.00 0.00 36 1013.2
20260503191604 84 0 1.0 5.0 0.00 0.00 0.00 38 1013.4
20260503191041 84 103 1.0 4.0 0.00 0.00 0.00 37 1013.5
20260503190544 83 27 1.0 4.0 0.00 0.00 0.00 42 1013.5
20260503190054 83 0 0.0 3.0 0.00 0.00 0.00 38 1013.5
20260503185539 83 110 1.0 3.0 0.00 0.00 0.00 41 1013.7
20260503185040 82 0 1.0 4.0 0.00 0.00 0.00 43 1013.7
20260503184551 82 127 0.0 4.0 0.00 0.00 0.00 41 1013.7
20260503184042 82 316 1.0 3.0 0.00 0.00 0.00 40 1013.7
20260503183540 81 0 1.0 3.0 0.00 0.00 0.00 45 1013.9
20260503183108 81 150 1.0 3.0 0.00 0.00 0.00 48 1013.9
20260503182539 81 150 0.0 3.0 0.00 0.00 0.00 47 1013.9
20260503182040 81 286 0.0 2.0 0.00 0.00 0.00 55 1013.8
20260503181618 80 0 0.0 2.0 0.00 0.00 0.00 58 1013.8
20260503181040 80 133 0.0 2.0 0.00 0.00 0.00 53 1013.9
20260503180540 80 133 1.0 2.0 0.00 0.00 0.00 52 1013.9
20260503180052 79 0 0.0 1.0 0.00 0.00 0.00 60 1013.9
20260503175539 78 0 0.0 2.0 0.00 0.00 0.00 58 1013.9
20260503175043 77 0 0.0 2.0 0.00 0.00 0.00 61 1014.0
20260503174550 77 0 0.0 2.0 0.00 0.00 0.00 63 1014.0
20260503174044 76 157 0.0 2.0 0.00 0.00 0.00 60 1014.1
20260503173541 75 0 0.0 2.0 0.00 0.00 0.00 71 1014.1
20260503173055 75 0 0.0 2.0 0.00 0.00 0.00 70 1014.1
20260503172545 73 65 0.0 2.0 0.00 0.00 0.00 67 1014.2
20260503172045 73 0 0.0 1.0 0.00 0.00 0.00 73 1014.3
20260503171553 72 0 0.0 2.0 0.00 0.00 0.00 73 1014.3
20260503171043 71 0 0.0 2.0 0.00 0.00 0.00 76 1014.4
20260503170543 70 0 0.0 1.0 0.00 0.00 0.00 77 1014.3
20260503150540 50 216 0.0 1.0 0.00 0.00 0.00 95 1015.2
20260503131042 44 0 0.0 0.0 0.00 0.00 0.00 93 1014.9
20260503130542 44 0 0.0 0.0 0.00 0.00 0.00 93 1015.0
20260503110543 46 0 0.0 0.0 0.00 0.00 0.00 93 1015.5
20260503100105 47 0 0.0 0.0 0.00 0.00 0.00 92 1015.4
20260503081550 49 0 0.0 0.0 0.00 0.00 0.00 92 1015.6
20260503081048 49 0 0.0 1.0 0.00 0.00 0.00 92 1015.6
20260503080540 50 0 0.0 1.0 0.00 0.00 0.00 91 1015.6
20260503072539 51 0 0.0 0.0 0.00 0.00 0.00 91 1015.4
20260503072040 51 0 0.0 0.0 0.00 0.00 0.00 91 1015.4
20260503071547 51 0 0.0 0.0 0.00 0.00 0.00 91 1015.5
20260503071039 51 0 0.0 0.0 0.00 0.00 0.00 91 1015.6
20260503070540 51 0 0.0 0.0 0.00 0.00 0.00 91 1015.7
20260503070110 51 0 0.0 0.0 0.00 0.00 0.00 91 1015.8
20260503060114 53 0 0.0 0.0 0.00 0.00 0.00 89 1015.7
20260503055042 54 0 0.0 0.0 0.00 0.00 0.00 90 1015.8
20260503054554 54 0 0.0 0.0 0.00 0.00 0.00 89 1015.7
20260503054040 54 0 0.0 0.0 0.00 0.00 0.00 89 1015.7
20260503053543 55 0 0.0 0.0 0.00 0.00 0.00 89 1015.6
20260503053053 55 0 0.0 0.0 0.00 0.00 0.00 89 1015.8
20260503052540 55 0 0.0 0.0 0.00 0.00 0.00 89 1015.7
20260503052043 55 0 0.0 0.0 0.00 0.00 0.00 88 1015.5
20260503051552 56 0 0.0 2.0 0.00 0.00 0.00 89 1015.4
20260503051042 56 0 0.0 3.0 0.00 0.00 0.00 89 1015.5
20260503050540 56 233 1.0 4.0 0.00 0.00 0.00 88 1015.5
20260503050052 56 235 1.0 4.0 0.00 0.00 0.00 88 1015.4
20260503045542 56 0 0.0 2.0 0.00 0.00 0.00 88 1015.5
20260503045039 57 0 0.0 0.0 0.00 0.00 0.00 88 1015.4
20260503044551 57 0 0.0 0.0 0.00 0.00 0.00 87 1015.5
20260503044042 57 0 0.0 0.0 0.00 0.00 0.00 87 1015.6
20260503043539 58 0 0.0 2.0 0.00 0.00 0.00 87 1015.5
20260503043048 58 0 0.0 2.0 0.00 0.00 0.00 87 1015.5
20260503042542 58 104 0.0 1.0 0.00 0.00 0.00 87 1015.5
20260503042042 58 0 0.0 1.0 0.00 0.00 0.00 86 1015.4
20260503041557 59 0 0.0 0.0 0.00 0.00 0.00 86 1015.3
20260503041043 59 0 0.0 1.0 0.00 0.00 0.00 86 1015.4
20260503040542 60 0 0.0 1.0 0.00 0.00 0.00 85 1015.3
20260503040054 60 0 0.0 0.0 0.00 0.00 0.00 85 1015.1
20260503035542 60 0 0.0 1.0 0.00 0.00 0.00 85 1015.0
20260503035041 61 0 0.0 1.0 0.00 0.00 0.00 84 1015.0
20260503034556 61 0 0.0 1.0 0.00 0.00 0.00 84 1015.0
20260503034045 62 0 0.0 1.0 0.00 0.00 0.00 83 1014.8
20260503033541 62 0 0.0 2.0 0.00 0.00 0.00 83 1014.7
20260503033055 62 0 1.0 2.0 0.00 0.00 0.00 83 1014.5
20260503032543 63 0 0.0 2.0 0.00 0.00 0.00 82 1014.4
20260503032040 64 63 0.0 3.0 0.00 0.00 0.00 81 1014.2
20260503031551 64 61 1.0 3.0 0.00 0.00 0.00 81 1014.1
20260503031040 64 133 0.0 2.0 0.00 0.00 0.00 80 1014.0
20260503030539 65 0 0.0 2.0 0.00 0.00 0.00 79 1013.9
20260503030056 66 0 0.0 2.0 0.00 0.00 0.00 78 1013.8
20260503025539 66 0 0.0 1.0 0.00 0.00 0.00 77 1013.6
20260503025041 67 0 0.0 1.0 0.00 0.00 0.00 76 1013.6
20260503024552 68 0 0.0 2.0 0.00 0.00 0.00 75 1013.6
20260503024041 68 0 0.0 2.0 0.00 0.00 0.00 74 1013.7
20260503023542 69 0 0.0 1.0 0.00 0.00 0.00 72 1013.6
20260503023058 69 0 0.0 1.0 0.00 0.00 0.00 72 1013.6
20260503022541 70 0 0.0 1.0 0.00 0.00 0.00 70 1013.6
20260503022046 70 0 0.0 1.0 0.00 0.00 0.00 70 1013.6
20260503021553 71 0 0.0 2.0 0.00 0.00 0.00 68 1013.6
20260503021040 71 43 0.0 2.0 0.00 0.00 0.00 65 1013.7
20260503020540 71 0 0.0 2.0 0.00 0.00 0.00 65 1013.7
20260503020051 72 43 0.0 3.0 0.00 0.00 0.00 63 1013.6
20260503015540 72 0 0.0 3.0 0.00 0.00 0.00 62 1013.7
20260503015040 72 292 0.0 3.0 0.00 0.00 0.00 60 1013.7
20260503014550 73 0 0.0 2.0 0.00 0.00 0.00 60 1013.8
20260503014039 73 0 0.0 3.0 0.00 0.00 0.00 59 1013.8
20260503013540 73 0 0.0 3.0 0.00 0.00 0.00 59 1013.9
20260503013058 73 0 1.0 3.0 0.00 0.00 0.00 58 1013.8
20260503012543 73 262 0.0 4.0 0.00 0.00 0.00 59 1013.8
20260503012042 73 120 1.0 4.0 0.00 0.00 0.00 57 1013.8
20260503011604 73 215 1.0 4.0 0.00 0.00 0.00 57 1013.8
20260503011045 74 212 1.0 4.0 0.00 0.00 0.00 62 1013.8
20260503010542 74 269 0.0 2.0 0.00 0.00 0.00 60 1013.8
20260503010117 74 0 0.0 4.0 0.00 0.00 0.00 59 1013.7
20260503005542 74 46 1.0 4.0 0.00 0.00 0.00 62 1013.7
20260503005040 74 10 0.0 4.0 0.00 0.00 0.00 61 1013.7
20260503004549 75 12 1.0 4.0 0.00 0.00 0.00 58 1013.8
20260503004039 75 317 0.0 4.0 0.00 0.00 0.00 59 1013.8
20260503003539 75 279 1.0 4.0 0.00 0.00 0.00 58 1013.8
20260503003053 75 184 0.0 4.0 0.00 0.00 0.00 61 1013.8
20260503002539 74 288 1.0 4.0 0.00 0.00 0.00 60 1013.9
20260503002039 74 97 0.0 4.0 0.00 0.00 0.00 63 1013.9
20260503001611 75 302 0.0 2.0 0.00 0.00 0.00 62 1014.0
20260503001042 75 0 0.0 4.0 0.00 0.00 0.00 60 1014.0
20260503000541 75 307 2.0 4.0 0.00 0.00 0.00 58 1014.0
20260503000113 75 194 1.0 3.0 0.00 0.00 0.00 62 1014.1
20260502235542 76 342 0.0 2.0 0.00 0.00 0.00 57 1014.1
20260502235040 75 0 0.0 5.0 0.00 0.00 0.00 57 1014.1
20260502234558 75 136 1.0 5.0 0.00 0.00 0.00 58 1014.1
20260502234042 75 206 0.0 6.0 0.00 0.00 0.00 58 1014.2
20260502233543 75 124 0.0 6.0 0.00 0.00 0.00 60 1014.2
20260502233051 74 77 1.0 4.0 0.00 0.00 0.00 64 1014.3
20260502232542 74 138 0.0 2.0 0.00 0.00 0.00 66 1014.3
20260502232039 73 183 0.0 2.0 0.00 0.00 0.00 64 1014.5
20260502231549 72 181 0.0 3.0 0.00 0.00 0.00 66 1014.6
20260502231041 72 154 1.0 3.0 0.00 0.00 0.00 67 1014.7
20260502230540 71 0 0.0 3.0 0.00 0.00 0.00 69 1014.7
20260502230049 71 134 1.0 3.0 0.00 0.00 0.00 67 1014.7
20260502225541 70 153 1.0 4.0 0.00 0.00 0.00 68 1014.8
20260502225042 70 344 1.0 4.0 0.00 0.00 0.00 69 1014.9
20260502224558 69 163 1.0 4.0 0.00 0.00 0.00 70 1015.0
20260502224042 68 9 1.0 4.0 0.00 0.00 0.00 73 1015.1
20260502223542 68 194 0.0 5.0 0.00 0.00 0.00 72 1015.2
20260502223049 67 0 1.0 5.0 0.00 0.00 0.00 72 1015.3
20260502222544 67 174 1.0 4.0 0.00 0.00 0.00 73 1015.3
20260502222040 66 0 1.0 4.0 0.00 0.00 0.00 73 1015.4
20260502221552 66 196 0.0 3.0 0.00 0.00 0.00 75 1015.4